createdAt,value
2022-12-29T00:00:38.506Z,85.98
2022-12-29T00:01:38.613Z,86.15
2022-12-29T00:02:38.614Z,86.29
2022-12-29T00:03:38.672Z,86.70
2022-12-29T00:04:38.406Z,85.98
2022-12-29T00:05:38.435Z,86.08
2022-12-29T00:06:38.412Z,86.70
2022-12-29T00:07:38.413Z,86.46
2022-12-29T00:08:38.488Z,86.25
2022-12-29T00:09:38.427Z,86.08
2022-12-29T00:10:38.346Z,86.25
2022-12-29T00:11:38.378Z,85.84
2022-12-29T00:12:38.342Z,85.22
2022-12-29T00:13:38.452Z,85.53
2022-12-29T00:14:38.349Z,85.94
2022-12-29T00:15:38.410Z,85.63
2022-12-29T00:16:38.359Z,86.87
2022-12-29T00:17:38.377Z,86.25
2022-12-29T00:18:38.274Z,85.84
2022-12-29T00:19:38.299Z,85.94
2022-12-29T00:20:38.291Z,86.25
2022-12-29T00:21:38.262Z,85.43
2022-12-29T00:22:38.834Z,85.28
2022-12-29T00:23:38.240Z,84.88
2022-12-29T00:24:38.252Z,85.18
2022-12-29T00:25:38.255Z,84.98
2022-12-29T00:26:38.274Z,85.39
2022-12-29T00:27:38.276Z,84.98
2022-12-29T00:28:38.181Z,85.60
2022-12-29T00:29:38.196Z,85.18
2022-12-29T00:30:38.145Z,85.25
2022-12-29T00:31:38.143Z,84.94
2022-12-29T00:32:38.154Z,84.84
2022-12-29T00:33:38.134Z,85.04
2022-12-29T00:34:38.218Z,84.98
2022-12-29T00:35:38.117Z,85.39
2022-12-29T00:36:38.084Z,84.94
2022-12-29T00:37:38.067Z,85.14
2022-12-29T00:38:38.108Z,85.04
2022-12-29T00:39:38.089Z,85.14
2022-12-29T00:40:38.315Z,85.25
2022-12-29T00:41:38.086Z,85.14
2022-12-29T00:42:38.093Z,84.63
2022-12-29T00:43:38.049Z,84.59
2022-12-29T00:44:38.020Z,84.80
2022-12-29T00:45:38.862Z,84.39
2022-12-29T00:46:38.065Z,84.94
2022-12-29T00:47:37.973Z,84.63
2022-12-29T00:48:38.001Z,84.80
2022-12-29T00:49:37.983Z,84.59
2022-12-29T00:50:38.057Z,85.41
2022-12-29T00:51:37.945Z,85.21
2022-12-29T00:52:38.004Z,85.04
2022-12-29T00:53:37.917Z,85.14
2022-12-29T00:54:37.976Z,85.11
2022-12-29T00:55:37.963Z,84.90
2022-12-29T00:56:37.897Z,85.55
2022-12-29T00:57:37.897Z,85.46
2022-12-29T00:58:37.910Z,85.52
2022-12-29T00:59:37.901Z,85.41
2022-12-29T01:00:37.886Z,84.69
2022-12-29T01:01:38.025Z,85.52
2022-12-29T01:02:37.947Z,85.76
2022-12-29T01:03:37.820Z,85.86
2022-12-29T01:04:37.812Z,85.31
2022-12-29T01:05:37.874Z,85.11
2022-12-29T01:06:37.825Z,85.41
2022-12-29T01:07:37.793Z,85.31
2022-12-29T01:08:37.866Z,84.69
2022-12-29T01:09:37.740Z,84.69
2022-12-29T01:10:37.977Z,84.69
2022-12-29T01:11:37.808Z,84.80
2022-12-29T01:12:37.781Z,85.00
2022-12-29T01:13:37.740Z,84.25
2022-12-29T01:14:37.691Z,84.45
2022-12-29T01:15:37.735Z,84.55
2022-12-29T01:16:37.751Z,84.86
2022-12-29T01:17:37.712Z,85.00
2022-12-29T01:18:37.693Z,85.21
2022-12-29T01:19:37.670Z,84.76
2022-12-29T01:20:37.673Z,84.55
2022-12-29T01:21:37.634Z,84.45
2022-12-29T01:22:38.314Z,84.25
2022-12-29T01:23:37.599Z,84.66
2022-12-29T01:24:37.620Z,84.66
2022-12-29T01:25:37.640Z,84.66
2022-12-29T01:26:37.606Z,84.86
2022-12-29T01:27:37.631Z,84.55
2022-12-29T01:28:37.581Z,84.55
2022-12-29T01:29:37.633Z,84.66
2022-12-29T01:30:37.579Z,84.76
2022-12-29T01:31:37.602Z,84.86
2022-12-29T01:32:37.538Z,84.76
2022-12-29T01:33:37.644Z,84.86
2022-12-29T01:34:37.479Z,84.66
2022-12-29T01:35:37.491Z,85.27
2022-12-29T01:36:37.462Z,85.17
2022-12-29T01:37:37.511Z,85.38
2022-12-29T01:38:37.571Z,85.38
2022-12-29T01:39:37.479Z,85.58
2022-12-29T01:40:37.479Z,84.96
2022-12-29T01:41:37.428Z,84.86
2022-12-29T01:42:37.467Z,84.86
2022-12-29T01:43:38.309Z,84.86
2022-12-29T01:44:37.466Z,84.86
2022-12-29T01:45:37.516Z,84.86
2022-12-29T01:46:37.442Z,84.76
2022-12-29T01:47:38.198Z,84.96
2022-12-29T01:48:37.392Z,84.66
2022-12-29T01:49:37.348Z,84.82
2022-12-29T01:50:37.412Z,85.03
2022-12-29T01:51:37.347Z,84.86
2022-12-29T01:52:37.380Z,84.41
2022-12-29T01:53:37.370Z,84.61
2022-12-29T01:54:37.360Z,84.31
2022-12-29T01:55:37.320Z,84.45
2022-12-29T01:56:37.255Z,84.00
2022-12-29T01:57:37.306Z,84.52
2022-12-29T01:58:37.311Z,84.00
2022-12-29T01:59:37.360Z,84.61
2022-12-29T02:00:37.332Z,84.41
2022-12-29T02:01:37.370Z,84.52
2022-12-29T02:02:37.379Z,84.52
2022-12-29T02:03:37.300Z,84.61
2022-12-29T02:04:37.205Z,84.31
2022-12-29T02:05:37.242Z,84.10
2022-12-29T02:06:37.225Z,84.00
2022-12-29T02:07:37.192Z,84.52
2022-12-29T02:08:37.204Z,84.41
2022-12-29T02:09:37.204Z,84.61
2022-12-29T02:10:37.196Z,84.31
2022-12-29T02:11:37.117Z,84.72
2022-12-29T02:12:37.148Z,84.72
2022-12-29T02:13:37.176Z,84.82
2022-12-29T02:14:37.119Z,85.03
2022-12-29T02:15:37.927Z,85.13
2022-12-29T02:16:37.235Z,85.23
2022-12-29T02:17:37.147Z,86.15
2022-12-29T02:18:37.058Z,85.85
2022-12-29T02:19:37.179Z,85.78
2022-12-29T02:20:37.075Z,86.05
2022-12-29T02:21:37.039Z,85.95
2022-12-29T02:22:37.086Z,85.54
2022-12-29T02:23:37.040Z,85.33
2022-12-29T02:24:37.020Z,85.95
2022-12-29T02:25:37.016Z,85.54
2022-12-29T02:26:36.995Z,85.44
2022-12-29T02:27:36.962Z,85.23
2022-12-29T02:28:36.963Z,85.33
2022-12-29T02:29:36.986Z,85.95
2022-12-29T02:30:36.971Z,86.15
2022-12-29T02:31:37.032Z,86.87
2022-12-29T02:32:36.916Z,87.28
2022-12-29T02:33:36.973Z,87.38
2022-12-29T02:34:36.921Z,87.59
2022-12-29T02:35:36.958Z,86.98
2022-12-29T02:36:36.918Z,87.18
2022-12-29T02:37:36.873Z,87.59
2022-12-29T02:38:36.959Z,87.38
2022-12-29T02:39:36.861Z,87.08
2022-12-29T02:40:36.845Z,87.28
2022-12-29T02:41:36.957Z,87.28
2022-12-29T02:42:36.826Z,87.28
2022-12-29T02:43:36.920Z,87.38
2022-12-29T02:44:36.812Z,87.28
2022-12-29T02:45:36.831Z,87.49
2022-12-29T02:46:36.810Z,87.49
2022-12-29T02:47:36.852Z,87.28
2022-12-29T02:48:36.811Z,87.28
2022-12-29T02:49:36.715Z,87.18
2022-12-29T02:50:36.769Z,87.38
2022-12-29T02:51:36.792Z,87.49
2022-12-29T02:52:36.767Z,87.49
2022-12-29T02:53:36.786Z,87.38
2022-12-29T02:54:37.699Z,87.08
2022-12-29T02:55:36.738Z,87.38
2022-12-29T02:56:36.709Z,87.04
2022-12-29T02:57:36.758Z,87.18
2022-12-29T02:58:36.703Z,87.24
2022-12-29T02:59:37.301Z,86.98
2022-12-29T03:00:36.677Z,86.87
2022-12-29T03:01:36.755Z,86.93
2022-12-29T03:02:36.791Z,87.18
2022-12-29T03:03:36.621Z,86.93
2022-12-29T03:04:36.629Z,86.98
2022-12-29T03:05:36.664Z,86.98
2022-12-29T03:06:36.592Z,86.93
2022-12-29T03:07:36.576Z,87.28
2022-12-29T03:08:36.750Z,87.04
2022-12-29T03:09:36.556Z,86.93
2022-12-29T03:10:36.560Z,86.93
2022-12-29T03:11:36.566Z,86.83
2022-12-29T03:12:36.513Z,86.66
2022-12-29T03:13:36.603Z,86.93
2022-12-29T03:14:36.519Z,87.18
2022-12-29T03:15:36.588Z,87.24
2022-12-29T03:16:36.581Z,87.24
2022-12-29T03:17:36.535Z,86.93
2022-12-29T03:18:36.494Z,86.63
2022-12-29T03:19:36.478Z,87.14
2022-12-29T03:20:36.473Z,87.14
2022-12-29T03:21:36.508Z,87.04
2022-12-29T03:22:36.507Z,87.04
2022-12-29T03:23:36.414Z,86.93
2022-12-29T03:24:36.449Z,86.63
2022-12-29T03:25:36.402Z,87.04
2022-12-29T03:26:36.388Z,86.63
2022-12-29T03:27:36.383Z,86.32
2022-12-29T03:28:36.377Z,86.69
2022-12-29T03:29:37.299Z,86.79
2022-12-29T03:30:36.349Z,86.38
2022-12-29T03:31:36.585Z,86.48
2022-12-29T03:32:36.326Z,86.28
2022-12-29T03:33:36.300Z,86.18
2022-12-29T03:34:36.333Z,86.18
2022-12-29T03:35:36.314Z,86.38
2022-12-29T03:36:36.326Z,86.18
2022-12-29T03:37:36.292Z,86.18
2022-12-29T03:38:36.318Z,86.83
2022-12-29T03:39:36.247Z,86.58
2022-12-29T03:40:36.339Z,86.28
2022-12-29T03:41:36.253Z,86.38
2022-12-29T03:42:36.231Z,86.18
2022-12-29T03:43:36.836Z,86.18
2022-12-29T03:44:36.183Z,86.28
2022-12-29T03:45:36.261Z,86.48
2022-12-29T03:46:36.310Z,85.77
2022-12-29T03:47:36.163Z,85.83
2022-12-29T03:48:36.257Z,86.14
2022-12-29T03:49:36.138Z,85.93
2022-12-29T03:50:36.814Z,86.04
2022-12-29T03:51:36.162Z,85.11
2022-12-29T03:52:36.140Z,85.11
2022-12-29T03:53:36.127Z,85.01
2022-12-29T03:54:36.261Z,85.31
2022-12-29T03:55:36.118Z,85.22
2022-12-29T03:56:36.112Z,85.72
2022-12-29T03:57:36.123Z,85.83
2022-12-29T03:58:36.024Z,86.44
2022-12-29T03:59:36.172Z,86.24
2022-12-29T04:00:36.051Z,86.55
2022-12-29T04:01:36.215Z,86.55
2022-12-29T04:02:36.232Z,86.44
2022-12-29T04:03:36.054Z,86.55
2022-12-29T04:04:36.017Z,86.34
2022-12-29T04:05:36.026Z,86.44
2022-12-29T04:06:36.008Z,86.44
2022-12-29T04:07:36.024Z,86.44
2022-12-29T04:08:36.010Z,86.75
2022-12-29T04:09:35.936Z,86.85
2022-12-29T04:10:35.930Z,86.85
2022-12-29T04:11:36.017Z,86.96
2022-12-29T04:12:35.941Z,87.57
2022-12-29T04:13:35.960Z,88.23
2022-12-29T04:14:35.854Z,88.74
2022-12-29T04:15:35.999Z,88.74
2022-12-29T04:16:35.940Z,88.64
2022-12-29T04:17:35.877Z,88.84
2022-12-29T04:18:35.894Z,88.84
2022-12-29T04:19:35.845Z,88.74
2022-12-29T04:20:35.882Z,88.74
2022-12-29T04:21:35.891Z,88.59
2022-12-29T04:22:35.831Z,88.18
2022-12-29T04:23:35.830Z,88.02
2022-12-29T04:24:35.868Z,87.82
2022-12-29T04:25:35.848Z,87.51
2022-12-29T04:26:35.842Z,87.67
2022-12-29T04:27:36.359Z,87.92
2022-12-29T04:28:35.772Z,88.12
2022-12-29T04:29:36.765Z,88.88
2022-12-29T04:30:35.753Z,88.57
2022-12-29T04:31:35.831Z,88.43
2022-12-29T04:32:35.745Z,88.78
2022-12-29T04:33:35.720Z,88.84
2022-12-29T04:34:35.755Z,89.60
2022-12-29T04:35:35.728Z,89.60
2022-12-29T04:36:35.706Z,89.60
2022-12-29T04:37:35.685Z,89.39
2022-12-29T04:38:35.706Z,89.50
2022-12-29T04:39:35.665Z,90.56
2022-12-29T04:40:35.681Z,90.16
2022-12-29T04:41:35.648Z,90.87
2022-12-29T04:42:35.659Z,91.28
2022-12-29T04:43:36.292Z,91.28
2022-12-29T04:44:38.676Z,91.18
2022-12-29T04:45:36.593Z,91.59
2022-12-29T04:46:35.717Z,91.55
2022-12-29T04:47:35.622Z,91.35
2022-12-29T04:48:35.629Z,91.24
2022-12-29T04:49:35.595Z,91.24
2022-12-29T04:50:35.591Z,91.14
2022-12-29T04:51:35.535Z,91.35
2022-12-29T04:52:35.557Z,91.50
2022-12-29T04:53:35.572Z,90.89
2022-12-29T04:54:35.481Z,91.20
2022-12-29T04:55:35.472Z,90.99
2022-12-29T04:56:35.527Z,91.09
2022-12-29T04:57:35.558Z,90.69
2022-12-29T04:58:35.526Z,90.58
2022-12-29T04:59:35.473Z,90.17
2022-12-29T05:00:35.473Z,90.58
2022-12-29T05:01:35.563Z,90.69
2022-12-29T05:02:35.776Z,91.09
2022-12-29T05:03:35.529Z,90.28
2022-12-29T05:04:36.274Z,90.17
2022-12-29T05:05:35.408Z,89.92
2022-12-29T05:06:35.431Z,89.97
2022-12-29T05:07:35.340Z,90.13
2022-12-29T05:08:36.189Z,89.56
2022-12-29T05:09:35.412Z,89.51
2022-12-29T05:10:35.377Z,89.51
2022-12-29T05:11:35.402Z,89.76
2022-12-29T05:12:35.327Z,89.42
2022-12-29T05:13:35.290Z,89.66
2022-12-29T05:14:35.288Z,89.31
2022-12-29T05:15:35.323Z,89.31
2022-12-29T05:16:35.349Z,89.00
2022-12-29T05:17:35.273Z,89.51
2022-12-29T05:18:35.253Z,89.51
2022-12-29T05:19:35.261Z,89.42
2022-12-29T05:20:37.885Z,89.45
2022-12-29T05:21:35.229Z,90.13
2022-12-29T05:22:35.228Z,89.31
2022-12-29T05:23:35.253Z,90.48
2022-12-29T05:24:35.198Z,90.17
2022-12-29T05:25:35.165Z,89.87
2022-12-29T05:26:35.191Z,90.44
2022-12-29T05:27:35.834Z,90.89
2022-12-29T05:28:35.117Z,91.09
2022-12-29T05:29:35.194Z,90.69
2022-12-29T05:30:35.095Z,91.09
2022-12-29T05:31:35.371Z,91.14
2022-12-29T05:32:35.115Z,91.14
2022-12-29T05:33:35.111Z,91.30
2022-12-29T05:34:35.050Z,92.36
2022-12-29T05:35:36.048Z,92.47
2022-12-29T05:36:38.087Z,92.32
2022-12-29T05:37:36.089Z,92.68
2022-12-29T05:38:35.114Z,93.19
2022-12-29T05:39:35.050Z,92.78
2022-12-29T05:40:35.164Z,92.88
2022-12-29T05:41:35.137Z,92.98
2022-12-29T05:42:34.997Z,93.33
2022-12-29T05:43:35.108Z,92.78
2022-12-29T05:44:35.003Z,93.08
2022-12-29T05:45:35.046Z,92.98
2022-12-29T05:46:35.052Z,93.19
2022-12-29T05:47:34.940Z,93.08
2022-12-29T05:48:38.119Z,93.19
2022-12-29T05:49:35.922Z,93.08
2022-12-29T05:50:36.051Z,93.29
2022-12-29T05:51:35.044Z,93.39
2022-12-29T05:52:34.897Z,93.29
2022-12-29T05:53:34.927Z,93.23
2022-12-29T05:54:34.917Z,93.54
2022-12-29T05:55:34.861Z,93.29
2022-12-29T05:56:34.899Z,92.98
2022-12-29T05:57:34.845Z,92.98
2022-12-29T05:58:34.848Z,92.98
2022-12-29T05:59:35.842Z,93.13
2022-12-29T06:00:34.820Z,92.98
2022-12-29T06:01:35.888Z,92.88
2022-12-29T06:02:35.081Z,92.78
2022-12-29T06:03:34.949Z,92.98
2022-12-29T06:04:34.782Z,93.13
2022-12-29T06:05:34.745Z,93.13
2022-12-29T06:06:35.342Z,92.57
2022-12-29T06:07:34.748Z,92.88
2022-12-29T06:08:34.854Z,92.98
2022-12-29T06:09:34.717Z,93.19
2022-12-29T06:10:34.773Z,92.78
2022-12-29T06:11:34.782Z,92.68
2022-12-29T06:12:35.800Z,92.47
2022-12-29T06:13:34.692Z,92.57
2022-12-29T06:14:35.686Z,92.47
2022-12-29T06:15:34.759Z,92.57
2022-12-29T06:16:34.731Z,92.06
2022-12-29T06:17:34.687Z,92.06
2022-12-29T06:18:34.669Z,91.96
2022-12-29T06:31:57.139Z,93.19
2022-12-29T06:32:57.079Z,93.29
2022-12-29T06:34:00.420Z,93.29
2022-12-29T06:34:59.087Z,93.19
2022-12-29T06:35:58.381Z,93.19
2022-12-29T06:36:58.152Z,93.39
2022-12-29T06:37:58.127Z,93.19
2022-12-29T06:38:58.131Z,93.08
2022-12-29T06:39:58.112Z,93.49
2022-12-29T06:40:58.121Z,93.80
2022-12-29T06:41:58.153Z,93.80
2022-12-29T06:42:58.069Z,94.15
2022-12-29T06:43:58.298Z,94.11
2022-12-29T06:44:58.013Z,94.73
2022-12-29T06:45:58.138Z,94.67
2022-12-29T06:46:58.015Z,94.67
2022-12-29T06:47:58.037Z,94.98
2022-12-29T06:48:57.996Z,95.07
2022-12-29T06:49:57.969Z,94.98
2022-12-29T06:50:57.968Z,95.07
2022-12-29T06:51:57.983Z,95.07
2022-12-29T06:52:57.939Z,94.87
2022-12-29T06:53:58.055Z,94.01
2022-12-29T06:54:57.989Z,93.64
2022-12-29T06:55:57.884Z,93.39
2022-12-29T06:56:57.879Z,92.98
2022-12-29T06:57:57.990Z,93.19
2022-12-29T06:58:57.891Z,92.78
2022-12-29T06:59:57.858Z,93.29
2022-12-29T07:00:57.933Z,93.19
2022-12-29T07:01:58.079Z,92.78
2022-12-29T07:02:58.058Z,92.78
2022-12-29T07:03:57.807Z,92.27
2022-12-29T07:04:57.828Z,92.27
2022-12-29T07:05:57.811Z,92.27
2022-12-29T07:06:57.825Z,92.47
2022-12-29T07:07:57.826Z,92.16
2022-12-29T07:08:57.742Z,92.16
2022-12-29T07:09:57.875Z,92.78
2022-12-29T07:10:57.748Z,92.78
2022-12-29T07:11:57.797Z,92.98
2022-12-29T07:12:57.727Z,92.88
2022-12-29T07:14:04.503Z,93.19
2022-12-29T07:14:58.770Z,92.47
2022-12-29T07:15:57.701Z,92.27
2022-12-29T07:16:57.790Z,92.27
2022-12-29T07:17:57.728Z,92.47
2022-12-29T07:18:57.667Z,92.57
2022-12-29T07:19:57.670Z,92.36
2022-12-29T07:20:57.685Z,92.57
2022-12-29T07:21:57.853Z,92.16
2022-12-29T07:22:57.651Z,92.68
2022-12-29T07:23:57.618Z,92.57
2022-12-29T07:24:57.632Z,92.68
2022-12-29T07:25:57.653Z,92.06
2022-12-29T07:26:57.680Z,92.36
2022-12-29T07:27:57.637Z,92.68
2022-12-29T07:28:57.561Z,92.78
2022-12-29T07:29:57.687Z,92.88
2022-12-29T07:30:57.551Z,92.57
2022-12-29T07:31:57.721Z,92.41
2022-12-29T07:32:57.571Z,92.57
2022-12-29T07:33:57.524Z,92.36
2022-12-29T07:34:57.610Z,92.68
2022-12-29T07:35:57.509Z,92.57
2022-12-29T07:36:57.519Z,92.57
2022-12-29T07:37:57.636Z,92.36
2022-12-29T07:38:57.487Z,92.27
2022-12-29T07:39:57.435Z,92.47
2022-12-29T07:40:57.425Z,92.27
2022-12-29T07:42:04.274Z,92.36
2022-12-29T07:42:59.483Z,92.27
2022-12-29T07:43:57.449Z,92.27
2022-12-29T07:44:57.401Z,92.47
2022-12-29T07:45:57.445Z,92.36
2022-12-29T07:46:58.813Z,92.88
2022-12-29T07:47:57.460Z,92.78
2022-12-29T07:48:57.407Z,93.08
2022-12-29T07:49:57.410Z,92.68
2022-12-29T07:50:57.330Z,92.78
2022-12-29T07:51:57.427Z,93.08
2022-12-29T07:52:57.332Z,93.19
2022-12-29T07:53:57.427Z,93.19
2022-12-29T07:54:57.315Z,93.08
2022-12-29T07:55:57.297Z,93.08
2022-12-29T07:56:57.325Z,93.23
2022-12-29T07:57:57.289Z,93.49
2022-12-29T07:58:57.304Z,93.08
2022-12-29T07:59:57.243Z,93.19
2022-12-29T08:00:57.389Z,93.29
2022-12-29T08:01:57.371Z,93.19
2022-12-29T08:02:57.345Z,93.29
2022-12-29T08:03:57.813Z,93.60
2022-12-29T08:04:58.389Z,93.60
2022-12-29T08:05:57.317Z,93.80
2022-12-29T08:06:57.195Z,93.90
2022-12-29T08:07:57.283Z,93.70
2022-12-29T08:08:57.185Z,94.01
2022-12-29T08:09:57.235Z,93.80
2022-12-29T08:10:57.159Z,94.42
2022-12-29T08:11:57.204Z,94.83
2022-12-29T08:12:57.692Z,94.62
2022-12-29T08:13:57.162Z,94.62
2022-12-29T08:14:57.133Z,94.83
2022-12-29T08:15:57.138Z,94.73
2022-12-29T08:16:57.117Z,94.62
2022-12-29T08:17:57.142Z,95.03
2022-12-29T08:18:57.087Z,95.14
2022-12-29T08:19:57.081Z,95.34
2022-12-29T08:20:57.086Z,95.03
2022-12-29T08:21:57.028Z,95.03
2022-12-29T08:22:57.080Z,95.75
2022-12-29T08:23:57.016Z,95.75
2022-12-29T08:24:57.004Z,95.79
2022-12-29T08:25:56.989Z,96.00
2022-12-29T08:26:56.998Z,96.06
2022-12-29T08:27:57.028Z,95.34
2022-12-29T08:28:56.959Z,96.00
2022-12-29T08:29:56.952Z,95.90
2022-12-29T08:30:57.011Z,95.95
2022-12-29T08:31:56.978Z,95.69
2022-12-29T08:32:56.959Z,96.26
2022-12-29T08:33:56.953Z,96.00
2022-12-29T08:34:56.955Z,96.20
2022-12-29T08:35:56.965Z,95.69
2022-12-29T08:36:56.878Z,96.06
2022-12-29T08:37:56.944Z,95.79
2022-12-29T08:38:56.849Z,96.00
2022-12-29T08:39:56.912Z,95.79
2022-12-29T08:40:56.843Z,96.00
2022-12-29T08:41:56.831Z,95.54
2022-12-29T08:42:56.864Z,95.34
2022-12-29T08:43:56.790Z,95.59
2022-12-29T08:44:56.818Z,95.79
2022-12-29T08:45:57.903Z,96.06
2022-12-29T08:46:56.913Z,95.95
2022-12-29T08:47:56.774Z,95.86
2022-12-29T08:48:59.408Z,95.24
2022-12-29T08:49:56.748Z,95.24
2022-12-29T08:50:56.727Z,95.75
2022-12-29T08:51:56.800Z,95.69
2022-12-29T08:52:56.966Z,95.44
2022-12-29T08:53:56.825Z,95.34
2022-12-29T08:54:56.731Z,95.34
2022-12-29T08:56:00.834Z,95.54
2022-12-29T08:56:58.682Z,95.44
2022-12-29T08:57:56.712Z,95.44
2022-12-29T08:58:56.650Z,94.99
2022-12-29T08:59:56.713Z,94.83
2022-12-29T09:00:56.711Z,94.73
2022-12-29T09:01:56.701Z,93.76
2022-12-29T09:02:56.830Z,93.25
2022-12-29T09:04:58.699Z,92.69
2022-12-29T09:05:56.606Z,92.08
2022-12-29T09:06:56.643Z,90.95
2022-12-29T09:07:56.585Z,90.84
2022-12-29T09:08:56.572Z,91.16
2022-12-29T09:09:56.625Z,90.13
2022-12-29T09:10:56.513Z,90.23
2022-12-29T09:11:56.569Z,89.83
2022-12-29T09:12:56.584Z,90.03
2022-12-29T09:13:56.519Z,90.95
2022-12-29T09:14:56.558Z,91.16
2022-12-29T09:15:56.664Z,90.03
2022-12-29T09:16:57.106Z,91.46
2022-12-29T09:17:56.539Z,91.16
2022-12-29T09:18:56.498Z,91.05
2022-12-29T09:19:56.515Z,91.16
2022-12-29T09:20:56.449Z,91.05
2022-12-29T09:21:56.526Z,90.03
2022-12-29T09:22:56.503Z,90.95
2022-12-29T09:23:56.425Z,90.44
2022-12-29T09:24:56.494Z,89.92
2022-12-29T09:25:56.385Z,89.51
2022-12-29T09:26:56.490Z,88.80
2022-12-29T09:27:56.439Z,88.49
2022-12-29T09:35:28.717Z,86.40
2022-12-29T09:36:29.968Z,87.22
2022-12-29T09:37:30.109Z,87.73
2022-12-29T09:38:29.830Z,88.65
2022-12-29T09:39:29.794Z,89.11
2022-12-29T09:40:29.799Z,89.51
2022-12-29T09:41:29.814Z,89.72
2022-12-29T09:42:29.778Z,89.51
2022-12-29T09:43:29.785Z,90.13
2022-12-29T09:44:29.802Z,90.03
2022-12-29T09:45:29.757Z,89.83
2022-12-29T09:46:29.799Z,90.64
2022-12-29T09:47:29.715Z,90.44
2022-12-29T09:48:29.776Z,90.54
2022-12-29T09:49:29.881Z,90.75
2022-12-29T09:50:29.760Z,90.64
2022-12-29T09:51:29.680Z,90.54
2022-12-29T09:52:29.666Z,90.64
2022-12-29T09:53:29.878Z,90.13
2022-12-29T09:54:29.778Z,90.13
2022-12-29T09:55:29.677Z,89.92
2022-12-29T09:56:29.645Z,90.03
2022-12-29T09:57:29.641Z,89.98
2022-12-29T09:58:29.631Z,90.50
2022-12-29T09:59:29.725Z,90.34
2022-12-29T10:00:30.672Z,90.39
2022-12-29T10:01:29.733Z,89.27
2022-12-29T10:02:29.677Z,89.47
2022-12-29T10:03:29.835Z,89.68
2022-12-29T10:04:29.617Z,89.37
2022-12-29T10:05:29.614Z,89.33
2022-12-29T10:06:29.612Z,89.58
2022-12-29T10:07:31.041Z,89.53
2022-12-29T10:08:30.917Z,89.43
2022-12-29T10:09:29.504Z,89.33
2022-12-29T10:10:29.517Z,89.33
2022-12-29T10:11:29.458Z,89.74
2022-12-29T10:12:29.729Z,89.43
2022-12-29T10:13:29.608Z,89.12
2022-12-29T10:14:29.433Z,88.92
2022-12-29T10:15:29.444Z,89.03
2022-12-29T10:16:29.633Z,89.03
2022-12-29T10:17:30.282Z,89.33
2022-12-29T10:18:29.484Z,89.64
2022-12-29T10:19:33.101Z,89.03
2022-12-29T10:20:30.399Z,89.33
2022-12-29T10:21:29.520Z,88.82
2022-12-29T10:22:29.368Z,89.03
2022-12-29T10:23:29.376Z,88.76
2022-12-29T10:24:29.382Z,89.23
2022-12-29T10:25:32.884Z,88.71
2022-12-29T10:26:30.351Z,88.62
2022-12-29T10:27:29.383Z,89.03
2022-12-29T10:28:29.453Z,89.12
2022-12-29T10:29:29.268Z,89.43
2022-12-29T10:30:29.391Z,89.53
2022-12-29T10:31:29.484Z,89.43
2022-12-29T10:32:29.261Z,89.03
2022-12-29T10:33:29.287Z,89.23
2022-12-29T10:34:29.328Z,89.53
2022-12-29T10:35:29.338Z,89.03
2022-12-29T10:36:29.250Z,88.71
2022-12-29T10:37:33.795Z,88.92
2022-12-29T10:38:31.272Z,89.03
2022-12-29T10:39:29.283Z,88.62
2022-12-29T10:40:30.171Z,87.90
2022-12-29T10:41:29.249Z,88.41
2022-12-29T10:42:29.187Z,88.10
2022-12-29T10:43:29.181Z,86.77
2022-12-29T10:44:29.208Z,86.88
2022-12-29T10:45:29.188Z,87.18
2022-12-29T10:46:29.175Z,87.49
2022-12-29T10:47:29.232Z,86.88
2022-12-29T10:48:31.987Z,87.04
2022-12-29T10:49:30.132Z,87.29
2022-12-29T10:50:29.159Z,86.32
2022-12-29T10:51:29.065Z,86.98
2022-12-29T10:52:29.120Z,85.64
2022-12-29T10:53:29.117Z,86.12
2022-12-29T10:54:29.174Z,86.94
2022-12-29T10:55:29.147Z,86.05
2022-12-29T10:56:29.006Z,86.22
2022-12-29T10:57:29.100Z,86.36
2022-12-29T10:58:29.091Z,86.67
2022-12-29T10:59:29.000Z,86.16
2022-12-29T11:00:29.073Z,85.64
2022-12-29T11:01:29.075Z,86.05
2022-12-29T11:02:29.114Z,85.75
2022-12-29T11:03:29.078Z,85.64
2022-12-29T11:04:28.994Z,85.75
2022-12-29T11:17:37.436Z,83.39
2022-12-29T11:18:38.712Z,84.28
2022-12-29T11:19:41.133Z,83.15
2022-12-29T11:20:39.590Z,83.25
2022-12-29T11:21:38.392Z,83.05
2022-12-29T11:22:38.660Z,82.54
2022-12-29T11:23:38.466Z,82.95
2022-12-29T11:24:38.501Z,82.75
2022-12-29T11:25:38.449Z,82.43
2022-12-29T11:26:38.329Z,81.93
2022-12-29T11:27:38.553Z,83.56
2022-12-29T11:28:38.330Z,82.13
2022-12-29T11:29:38.390Z,82.75
2022-12-29T11:30:38.291Z,82.13
2022-12-29T11:31:38.406Z,82.13
2022-12-29T11:32:38.281Z,82.84
2022-12-29T11:33:38.300Z,82.75
2022-12-29T11:34:38.551Z,82.43
2022-12-29T11:35:38.283Z,81.62
2022-12-29T11:36:38.468Z,82.23
2022-12-29T11:37:38.645Z,82.84
2022-12-29T11:38:38.200Z,82.03
2022-12-29T11:39:38.311Z,82.23
2022-12-29T11:40:38.142Z,82.13
2022-12-29T11:41:38.217Z,81.82
2022-12-29T11:42:38.147Z,81.51
2022-12-29T11:43:38.620Z,79.88
2022-12-29T11:44:38.276Z,79.98
2022-12-29T11:45:38.305Z,80.80
2022-12-29T11:46:38.986Z,81.93
2022-12-29T11:47:38.180Z,79.27
2022-12-29T11:48:38.149Z,79.27
2022-12-29T11:49:38.409Z,78.45
2022-12-29T11:53:14.217Z,80.08
2022-12-29T11:54:14.390Z,79.88
2022-12-29T11:55:14.244Z,78.86
2022-12-29T11:56:14.330Z,78.96
2022-12-29T11:57:14.223Z,79.16
2022-12-29T11:58:15.457Z,79.37
2022-12-29T11:59:15.436Z,79.27
2022-12-29T12:00:15.700Z,79.27
2022-12-29T12:01:15.483Z,79.47
2022-12-29T12:02:15.456Z,80.94
2022-12-29T12:03:15.510Z,80.29
2022-12-29T12:04:15.406Z,79.30
2022-12-29T12:05:15.279Z,79.78
2022-12-29T12:06:15.421Z,79.91
2022-12-29T12:07:15.349Z,79.88
2022-12-29T12:08:20.488Z,81.41
2022-12-29T12:09:17.317Z,81.96
2022-12-29T12:10:15.414Z,80.94
2022-12-29T12:11:15.250Z,80.53
2022-12-29T12:12:15.161Z,79.91
2022-12-29T12:13:15.249Z,80.80
2022-12-29T12:14:15.245Z,81.01
2022-12-29T12:15:15.348Z,81.15
2022-12-29T12:16:15.212Z,79.50
2022-12-29T12:17:15.147Z,79.88
2022-12-29T12:18:15.271Z,79.16
2022-12-29T12:19:15.219Z,80.19
2022-12-29T12:20:15.306Z,79.91
2022-12-29T12:21:15.101Z,79.47
2022-12-29T12:22:16.076Z,79.68
2022-12-29T12:23:15.172Z,79.88
2022-12-29T12:24:15.499Z,79.91
2022-12-29T12:25:15.201Z,79.57
2022-12-29T12:26:16.851Z,79.68
2022-12-29T12:27:15.059Z,80.02
2022-12-29T12:28:15.013Z,79.91
2022-12-29T12:29:15.950Z,79.91
2022-12-29T12:30:15.224Z,79.82
2022-12-29T12:31:15.310Z,80.12
2022-12-29T12:32:14.994Z,79.82
2022-12-29T12:33:14.983Z,80.02
2022-12-29T12:34:15.016Z,81.15
2022-12-29T12:35:21.312Z,79.82
2022-12-29T12:36:16.970Z,80.53
2022-12-29T12:37:14.935Z,81.56
2022-12-29T12:38:14.976Z,81.65
2022-12-29T12:39:14.947Z,82.27
2022-12-29T12:40:15.488Z,82.37
2022-12-29T12:41:21.353Z,82.07
2022-12-29T12:42:16.873Z,80.12
2022-12-29T12:43:14.962Z,81.35
2022-12-29T12:44:14.992Z,80.43
2022-12-29T12:45:14.878Z,79.50
2022-12-29T12:46:15.708Z,78.86
2022-12-29T12:47:14.945Z,80.08
2022-12-29T12:48:14.883Z,79.68
2022-12-29T12:49:15.267Z,79.78
2022-12-29T12:50:14.794Z,79.78
2022-12-29T12:51:14.969Z,79.78
2022-12-29T12:52:14.864Z,79.61
2022-12-29T12:53:14.797Z,79.91
2022-12-29T12:54:14.815Z,79.88
2022-12-29T12:55:15.677Z,81.51
2022-12-29T12:56:16.166Z,80.02
2022-12-29T12:57:14.752Z,81.10
2022-12-29T12:58:14.743Z,81.93
2022-12-29T12:59:15.443Z,81.51
2022-12-29T13:00:14.778Z,81.41
2022-12-29T13:01:15.813Z,81.62
2022-12-29T13:02:16.095Z,81.35
2022-12-29T13:03:15.100Z,80.29
2022-12-29T13:04:14.722Z,81.10
2022-12-29T13:05:14.962Z,81.51
2022-12-29T13:06:14.750Z,81.93
2022-12-29T13:07:14.633Z,82.37
2022-12-29T13:08:14.801Z,82.17
2022-12-29T13:09:14.656Z,82.27
2022-12-29T13:10:14.670Z,82.98
2022-12-29T13:11:14.646Z,82.27
2022-12-29T13:12:14.781Z,81.62
2022-12-29T13:13:15.097Z,81.45
2022-12-29T13:14:14.579Z,82.27
2022-12-29T13:15:14.630Z,82.34
2022-12-29T13:16:15.000Z,81.86
2022-12-29T13:17:15.604Z,81.93
2022-12-29T13:18:14.538Z,81.41
2022-12-29T13:19:14.581Z,81.41
2022-12-29T13:20:14.524Z,81.45
2022-12-29T13:21:14.578Z,81.62
2022-12-29T13:22:15.765Z,81.86
2022-12-29T13:23:14.538Z,82.27
2022-12-29T13:24:14.540Z,81.24
2022-12-29T13:25:14.507Z,81.45
2022-12-29T13:26:14.650Z,81.56
2022-12-29T13:27:14.533Z,81.56